Time;durP1;ratioP1;P1;durP2;ratioP2;P2;SDS_P1;SDS_P2;PMS_P1;PMS_P2;Temp;Humidity;BMP_temperature;BMP_pressure;BME280_temperature;BME280_humidity;BME280_pressure;Samples;Min_cycle;Max_cycle;Signal;HPM_P1;HPM_P2
2021/04/29 00:01:49;;;;;;;7.05;5.32;;;14.10;58.30;;;;;;5047033;28;20025;-67
2021/04/29 00:04:15;;;;;;;7.60;5.47;;;14.00;58.40;;;;;;5042894;28;20424;-67
2021/04/29 00:06:41;;;;;;;6.63;5.20;;;14.00;58.80;;;;;;5049267;28;20140;-67
2021/04/29 00:09:08;;;;;;;9.13;5.00;;;13.90;58.90;;;;;;5041127;28;20051;-67
2021/04/29 00:11:35;;;;;;;8.40;5.70;;;13.80;58.90;;;;;;5048691;28;20416;-67
2021/04/29 00:14:00;;;;;;;6.43;5.38;;;13.60;59.50;;;;;;5046513;28;20021;-67
2021/04/29 00:16:27;;;;;;;7.32;5.22;;;13.60;60.00;;;;;;5048864;28;20083;-67
2021/04/29 00:18:52;;;;;;;6.97;5.65;;;13.50;60.20;;;;;;5033779;28;20025;-67
2021/04/29 00:21:18;;;;;;;6.97;5.43;;;13.50;60.60;;;;;;5053142;28;20032;-68
2021/04/29 00:23:44;;;;;;;8.52;4.80;;;13.40;60.60;;;;;;5050367;28;20025;-67
2021/04/29 00:26:09;;;;;;;7.68;5.20;;;13.30;60.70;;;;;;5051337;28;20087;-67
2021/04/29 00:28:35;;;;;;;9.20;5.47;;;13.20;61.40;;;;;;5033711;28;20470;-67
2021/04/29 00:31:00;;;;;;;10.20;5.93;;;13.10;61.30;;;;;;5042722;28;20409;-67
2021/04/29 00:33:26;;;;;;;5.93;5.18;;;13.00;61.60;;;;;;5033759;28;20473;-67
2021/04/29 00:35:51;;;;;;;7.10;5.10;;;13.00;61.90;;;;;;5051633;28;20033;-67
2021/04/29 00:38:17;;;;;;;6.50;5.15;;;13.00;62.10;;;;;;5052117;28;20017;-67
2021/04/29 00:40:43;;;;;;;7.85;5.50;;;13.00;62.00;;;;;;5051296;28;20043;-67
2021/04/29 00:43:13;;;;;;;6.45;4.93;;;12.90;62.10;;;;;;5027157;28;20056;-67
2021/04/29 00:45:40;;;;;;;8.95;5.65;;;12.80;62.40;;;;;;5051504;28;20475;-67
2021/04/29 00:48:05;;;;;;;7.93;5.80;;;12.70;62.50;;;;;;5053496;28;20053;-67
2021/04/29 00:50:31;;;;;;;8.18;5.35;;;12.60;62.90;;;;;;5052631;28;20024;-67
2021/04/29 00:52:57;;;;;;;9.40;5.45;;;12.60;63.30;;;;;;5052599;28;20606;-67
2021/04/29 00:55:23;;;;;;;7.93;6.40;;;12.60;63.60;;;;;;5050992;28;20090;-67
2021/04/29 00:57:48;;;;;;;7.65;5.57;;;12.50;63.70;;;;;;5033705;28;20025;-67
2021/04/29 01:00:15;;;;;;;8.02;5.50;;;12.50;63.80;;;;;;5048757;28;20021;-67
2021/04/29 01:02:48;;;;;;;7.82;5.13;;;12.50;64.00;;;;;;5052256;28;20039;-68
2021/04/29 01:05:28;;;;;;;8.30;5.57;;;12.60;64.30;;;;;;5051549;28;20059;-67
2021/04/29 01:08:03;;;;;;;8.70;5.32;;;12.60;64.10;;;;;;5051361;28;20441;-67
2021/04/29 01:10:34;;;;;;;7.75;5.47;;;12.60;64.30;;;;;;5049713;28;20116;-67
2021/04/29 01:13:13;;;;;;;9.95;5.10;;;12.60;64.20;;;;;;5025131;28;20025;-67
2021/04/29 01:15:43;;;;;;;9.23;5.88;;;12.60;64.70;;;;;;5033408;28;20021;-67
2021/04/29 01:18:09;;;;;;;7.57;5.40;;;12.50;64.50;;;;;;5033921;28;20035;-67
2021/04/29 01:21:03;;;;;;;7.95;5.97;;;12.50;64.40;;;;;;5034473;28;20034;-68
2021/04/29 01:23:41;;;;;;;7.38;5.05;;;12.60;65.30;;;;;;5031018;28;20028;-67
2021/04/29 01:26:13;;;;;;;8.52;5.50;;;12.60;64.90;;;;;;5032838;28;20025;-67
2021/04/29 01:28:39;;;;;;;10.32;5.75;;;12.50;64.60;;;;;;5043094;28;20029;-67
2021/04/29 01:31:08;;;;;;;10.02;5.50;;;12.50;64.50;;;;;;5017707;28;20055;-67
2021/04/29 01:33:35;;;;;;;5.85;5.00;;;12.40;64.80;;;;;;5049802;28;20045;-67
2021/04/29 01:36:02;;;;;;;7.45;5.38;;;12.40;64.90;;;;;;5047840;28;20029;-67
2021/04/29 01:38:28;;;;;;;8.68;5.50;;;12.40;65.20;;;;;;5045151;28;20354;-67
2021/04/29 01:40:54;;;;;;;7.95;5.43;;;12.30;65.40;;;;;;5051291;28;20056;-67
2021/04/29 01:43:21;;;;;;;10.40;6.13;;;12.30;65.50;;;;;;5043149;28;20079;-67
2021/04/29 01:45:46;;;;;;;10.30;5.88;;;12.30;65.70;;;;;;5049822;28;20098;-67
2021/04/29 01:48:12;;;;;;;11.15;5.93;;;12.20;65.60;;;;;;5050993;28;20473;-67
2021/04/29 01:50:38;;;;;;;9.20;6.60;;;12.20;65.90;;;;;;5051262;28;20144;-67
2021/04/29 01:53:05;;;;;;;8.80;6.60;;;12.20;66.20;;;;;;5045919;28;20390;-67
2021/04/29 01:55:32;;;;;;;6.53;5.50;;;12.20;66.50;;;;;;5045899;28;20486;-67
2021/04/29 01:57:58;;;;;;;10.32;6.30;;;12.20;66.60;;;;;;5050169;28;20131;-67
2021/04/29 02:00:24;;;;;;;7.88;6.05;;;12.20;66.70;;;;;;5051540;28;20029;-67
2021/04/29 02:02:50;;;;;;;7.22;5.95;;;12.10;66.70;;;;;;5051238;28;20057;-67
2021/04/29 02:05:16;;;;;;;9.32;6.22;;;12.20;67.00;;;;;;5032524;28;20035;-67
2021/04/29 02:07:41;;;;;;;9.27;6.15;;;12.20;67.20;;;;;;5050727;28;20032;-67
2021/04/29 02:10:08;;;;;;;9.10;6.18;;;12.20;67.20;;;;;;5033539;28;20083;-67
2021/04/29 02:12:43;;;;;;;17.80;6.90;;;12.10;67.30;;;;;;5049444;28;20568;-67
2021/04/29 02:15:11;;;;;;;9.50;6.78;;;12.10;67.70;;;;;;5049267;28;20420;-67
2021/04/29 02:17:45;;;;;;;8.57;6.68;;;12.00;67.60;;;;;;5049141;28;20025;-67
2021/04/29 02:20:13;;;;;;;10.57;7.30;;;11.90;68.40;;;;;;5045654;28;20028;-67
2021/04/29 02:22:41;;;;;;;8.77;7.00;;;11.90;68.20;;;;;;5047823;28;20033;-67
2021/04/29 02:25:09;;;;;;;12.55;7.68;;;11.90;68.50;;;;;;5109636;22;20380;-70
2021/04/29 02:27:35;;;;;;;8.07;6.38;;;11.90;68.60;;;;;;5046881;28;20037;-69
2021/04/29 02:30:08;;;;;;;10.40;7.40;;;11.90;68.70;;;;;;5033049;28;20468;-70
2021/04/29 02:32:34;;;;;;;8.90;7.13;;;11.80;68.80;;;;;;5031344;28;20481;-71
2021/04/29 02:35:01;;;;;;;11.57;7.55;;;11.80;68.70;;;;;;5024396;28;20022;-71
2021/04/29 02:37:27;;;;;;;12.00;6.97;;;11.70;69.00;;;;;;5038271;28;20104;-69
2021/04/29 02:39:52;;;;;;;10.60;7.43;;;11.70;69.40;;;;;;5039812;28;20104;-70
2021/04/29 02:42:18;;;;;;;10.60;7.10;;;11.70;69.60;;;;;;5013556;28;20486;-70
2021/04/29 02:44:44;;;;;;;9.27;7.45;;;11.80;69.80;;;;;;5030446;28;20021;-70
2021/04/29 02:47:10;;;;;;;8.98;7.03;;;11.80;69.90;;;;;;5032594;28;20404;-70
2021/04/29 02:49:35;;;;;;;9.40;6.75;;;11.80;70.10;;;;;;5014925;28;20029;-69
2021/04/29 02:52:01;;;;;;;9.73;6.70;;;11.80;70.20;;;;;;5031755;28;20040;-71
2021/04/29 02:54:27;;;;;;;9.45;6.97;;;11.80;70.40;;;;;;5034459;28;20033;-70
2021/04/29 02:56:53;;;;;;;8.68;7.07;;;11.70;70.60;;;;;;5023248;28;20029;-70
2021/04/29 02:59:18;;;;;;;8.45;6.70;;;11.70;70.80;;;;;;5032313;28;20025;-71
2021/04/29 03:01:45;;;;;;;7.38;6.10;;;11.70;70.90;;;;;;5032232;28;20032;-69
2021/04/29 03:04:10;;;;;;;8.23;6.18;;;11.70;71.10;;;;;;5029316;28;20021;-70
2021/04/29 03:06:36;;;;;;;10.32;6.65;;;11.80;71.50;;;;;;5030887;28;20030;-70
2021/04/29 03:09:04;;;;;;;9.18;6.60;;;11.80;71.70;;;;;;5029132;28;20080;-70
2021/04/29 03:11:30;;;;;;;8.88;6.85;;;11.70;71.80;;;;;;5030423;28;20075;-68
2021/04/29 03:13:56;;;;;;;8.85;6.38;;;11.70;71.90;;;;;;5029705;28;20466;-68
2021/04/29 03:16:21;;;;;;;9.27;6.57;;;11.80;72.20;;;;;;5033183;28;20037;-70
2021/04/29 03:18:47;;;;;;;7.72;6.40;;;11.70;72.30;;;;;;5030337;28;20108;-70
2021/04/29 03:21:13;;;;;;;7.88;6.38;;;11.80;72.50;;;;;;5030473;28;20029;-70
2021/04/29 03:23:38;;;;;;;9.02;6.00;;;11.80;72.60;;;;;;5012763;28;20079;-69
2021/04/29 03:26:04;;;;;;;6.97;5.45;;;11.80;72.80;;;;;;5029179;28;20045;-69
2021/04/29 03:28:31;;;;;;;6.20;5.32;;;11.80;72.90;;;;;;5029590;28;20056;-70
2021/04/29 03:30:56;;;;;;;6.28;4.80;;;11.70;73.00;;;;;;5030695;28;20416;-68
2021/04/29 03:33:22;;;;;;;4.88;4.22;;;11.80;73.20;;;;;;5029285;28;20030;-70
2021/04/29 03:35:48;;;;;;;5.10;4.25;;;11.80;73.40;;;;;;5028327;28;20024;-70
2021/04/29 03:38:13;;;;;;;4.82;3.83;;;11.70;73.40;;;;;;5012261;28;20028;-70
2021/04/29 03:40:39;;;;;;;4.80;3.60;;;11.70;73.50;;;;;;5029890;28;20494;-70
2021/04/29 03:43:05;;;;;;;5.03;3.58;;;11.70;73.50;;;;;;5033593;28;20099;-68
2021/04/29 03:45:31;;;;;;;6.63;3.60;;;11.70;73.60;;;;;;5042044;28;20049;-70
2021/04/29 03:47:57;;;;;;;4.28;3.55;;;11.70;73.80;;;;;;5029246;28;20014;-67
2021/04/29 03:50:22;;;;;;;4.40;3.10;;;11.80;73.90;;;;;;5030036;28;20444;-70
2021/04/29 03:52:48;;;;;;;3.85;3.13;;;11.80;73.90;;;;;;5031490;28;20023;-70
2021/04/29 03:55:14;;;;;;;3.47;2.75;;;11.80;73.90;;;;;;5036065;28;20026;-70
2021/04/29 03:57:39;;;;;;;2.80;2.58;;;11.70;73.90;;;;;;5031656;28;20052;-69
2021/04/29 04:00:06;;;;;;;3.45;2.85;;;11.70;73.90;;;;;;5032367;28;20026;-71
2021/04/29 04:02:32;;;;;;;4.05;3.67;;;11.70;74.00;;;;;;5034244;28;20033;-71
2021/04/29 04:04:58;;;;;;;5.22;3.85;;;11.60;73.90;;;;;;5033764;28;20498;-67
2021/04/29 04:07:23;;;;;;;5.93;3.67;;;11.60;73.90;;;;;;5035029;28;20045;-71
2021/04/29 04:09:49;;;;;;;5.30;3.90;;;11.50;73.90;;;;;;5034135;28;20465;-70
2021/04/29 04:12:14;;;;;;;4.90;4.10;;;11.50;74.10;;;;;;5033786;28;20115;-71
2021/04/29 04:14:40;;;;;;;4.93;3.80;;;11.50;74.20;;;;;;5032549;28;20033;-70
2021/04/29 04:17:05;;;;;;;4.15;3.75;;;11.40;74.40;;;;;;5033976;28;20052;-71
2021/04/29 04:19:31;;;;;;;3.53;3.22;;;11.40;74.40;;;;;;5033738;28;20088;-71
2021/04/29 04:21:57;;;;;;;3.58;3.22;;;11.40;74.40;;;;;;5033730;28;20044;-70
2021/04/29 04:24:22;;;;;;;3.45;3.03;;;11.40;74.40;;;;;;5032491;28;20083;-70
2021/04/29 04:26:48;;;;;;;3.55;3.25;;;11.30;74.30;;;;;;5034353;28;20469;-70
2021/04/29 04:29:13;;;;;;;4.00;3.35;;;11.30;74.30;;;;;;5023425;28;20033;-70
2021/04/29 04:31:39;;;;;;;3.45;3.15;;;11.30;74.30;;;;;;5035660;28;20029;-70
2021/04/29 04:34:05;;;;;;;3.38;3.05;;;11.30;74.40;;;;;;5033107;28;20080;-70
2021/04/29 04:36:30;;;;;;;3.75;2.97;;;11.30;74.40;;;;;;5028533;28;20022;-71
2021/04/29 04:38:56;;;;;;;3.70;3.13;;;11.30;74.40;;;;;;5015736;28;20017;-70
2021/04/29 04:41:22;;;;;;;4.88;3.45;;;11.20;74.40;;;;;;5042735;28;20071;-70
2021/04/29 04:43:47;;;;;;;4.32;3.40;;;11.20;74.50;;;;;;5039636;28;20025;-70
2021/04/29 04:46:13;;;;;;;3.83;3.33;;;11.10;74.40;;;;;;5035960;28;20026;-68
2021/04/29 04:48:38;;;;;;;3.45;3.15;;;11.10;74.40;;;;;;5035218;28;20036;-71
2021/04/29 04:51:04;;;;;;;3.97;3.63;;;11.10;74.40;;;;;;5016951;28;20477;-70
2021/04/29 04:53:30;;;;;;;3.15;2.88;;;11.10;74.50;;;;;;5016499;28;20060;-70
2021/04/29 04:55:55;;;;;;;4.18;3.15;;;11.10;74.40;;;;;;5033340;28;20034;-70
2021/04/29 04:58:21;;;;;;;3.38;2.85;;;11.10;74.40;;;;;;5034189;28;20066;-69
2021/04/29 05:00:50;;;;;;;3.90;3.15;;;11.10;74.40;;;;;;5033351;28;20037;-71
2021/04/29 05:03:16;;;;;;;4.75;3.22;;;11.10;74.30;;;;;;5033805;28;20069;-66
2021/04/29 05:05:43;;;;;;;4.47;3.55;;;11.00;74.20;;;;;;5033015;28;20033;-70
2021/04/29 05:08:09;;;;;;;4.55;3.40;;;11.10;74.30;;;;;;5035435;28;20385;-69
2021/04/29 05:10:36;;;;;;;3.30;2.83;;;11.10;74.20;;;;;;5016251;28;20084;-71
2021/04/29 05:13:03;;;;;;;4.10;3.25;;;11.10;74.20;;;;;;5034614;28;20482;-68
2021/04/29 05:15:35;;;;;;;4.90;3.13;;;11.00;74.10;;;;;;5031694;28;20130;-69
2021/04/29 05:18:01;;;;;;;3.35;3.05;;;11.00;74.20;;;;;;5032071;28;20380;-69
2021/04/29 05:20:28;;;;;;;4.82;3.15;;;11.10;74.50;;;;;;5048256;28;20026;-69
2021/04/29 05:22:54;;;;;;;4.13;3.20;;;11.00;74.00;;;;;;5032888;28;20023;-69
2021/04/29 05:25:22;;;;;;;4.47;3.13;;;10.90;73.80;;;;;;5030627;28;20021;-69
2021/04/29 05:27:49;;;;;;;4.90;3.10;;;10.90;73.70;;;;;;5039185;28;20371;-69
2021/04/29 05:30:15;;;;;;;4.93;3.50;;;10.90;73.80;;;;;;5040819;28;20032;-69
2021/04/29 05:32:41;;;;;;;4.45;3.20;;;10.80;73.70;;;;;;5032289;28;20120;-71
2021/04/29 05:35:07;;;;;;;4.78;3.78;;;10.80;73.80;;;;;;5030992;28;20021;-70
2021/04/29 05:37:32;;;;;;;6.13;3.58;;;10.80;73.80;;;;;;5018411;28;20133;-69
2021/04/29 05:39:58;;;;;;;8.50;4.38;;;10.90;73.80;;;;;;5036521;28;20436;-69
2021/04/29 05:42:24;;;;;;;8.02;4.30;;;10.90;73.60;;;;;;5027267;28;20071;-71
2021/04/29 05:44:50;;;;;;;5.32;3.92;;;11.00;73.60;;;;;;5030607;28;20454;-71
2021/04/29 05:47:16;;;;;;;4.60;3.88;;;11.00;73.70;;;;;;5031979;28;20504;-70
2021/04/29 05:49:42;;;;;;;6.07;4.22;;;11.00;73.70;;;;;;5014451;28;20085;-69
2021/04/29 05:52:09;;;;;;;6.97;4.63;;;11.10;73.60;;;;;;5031132;28;20377;-70
2021/04/29 05:54:35;;;;;;;5.85;4.43;;;11.10;73.60;;;;;;5029743;28;20051;-70
2021/04/29 05:57:01;;;;;;;6.60;4.38;;;11.10;73.50;;;;;;5032041;28;20084;-69
2021/04/29 05:59:26;;;;;;;5.13;4.43;;;11.20;73.80;;;;;;5032527;28;20499;-69
2021/04/29 06:01:52;;;;;;;5.25;3.50;;;11.40;73.80;;;;;;5032224;28;20033;-69
2021/04/29 06:04:18;;;;;;;5.68;3.55;;;11.40;73.50;;;;;;5029042;28;20032;-70
2021/04/29 06:06:45;;;;;;;4.93;3.50;;;11.60;73.60;;;;;;5035921;28;20037;-69
2021/04/29 06:09:11;;;;;;;5.63;3.85;;;11.60;73.30;;;;;;5029842;28;20800;-70
2021/04/29 06:11:36;;;;;;;4.82;3.38;;;11.70;73.00;;;;;;5021175;28;20025;-71
2021/04/29 06:14:03;;;;;;;6.43;3.17;;;11.70;72.90;;;;;;5043541;28;20119;-71
2021/04/29 06:16:28;;;;;;;4.60;3.22;;;11.70;72.70;;;;;;5028296;28;20029;-70
2021/04/29 06:18:54;;;;;;;6.40;3.17;;;11.70;72.70;;;;;;5019229;28;20021;-70
2021/04/29 06:21:19;;;;;;;5.00;3.47;;;11.80;72.90;;;;;;5012918;28;20047;-70
2021/04/29 06:23:45;;;;;;;3.65;2.95;;;11.80;72.90;;;;;;5029510;28;20091;-70
2021/04/29 06:26:11;;;;;;;4.43;2.85;;;11.90;72.60;;;;;;5030418;28;20469;-69
2021/04/29 06:28:36;;;;;;;6.47;2.78;;;11.90;72.30;;;;;;5031498;28;20143;-68
2021/04/29 06:31:02;;;;;;;3.90;2.83;;;11.90;72.10;;;;;;5030739;28;20029;-67
2021/04/29 06:33:27;;;;;;;5.60;2.88;;;11.80;72.00;;;;;;5013293;28;20025;-69
2021/04/29 06:35:54;;;;;;;3.28;2.97;;;11.80;72.10;;;;;;5030261;28;20053;-69
2021/04/29 06:38:20;;;;;;;4.78;2.80;;;11.80;72.10;;;;;;5031280;28;20140;-70
2021/04/29 06:40:46;;;;;;;4.75;2.90;;;11.90;71.80;;;;;;5037225;28;20033;-69
2021/04/29 06:43:12;;;;;;;3.63;2.63;;;11.90;71.80;;;;;;5000084;28;20021;-70
2021/04/29 06:45:40;;;;;;;2.97;2.67;;;11.80;71.70;;;;;;5011959;28;20204;-70
2021/04/29 06:48:07;;;;;;;3.22;2.45;;;11.90;72.30;;;;;;5029950;28;20465;-71
2021/04/29 06:50:33;;;;;;;3.15;2.25;;;11.90;71.70;;;;;;5030873;28;20192;-70
2021/04/29 06:52:59;;;;;;;4.05;2.78;;;11.90;71.70;;;;;;5031371;28;20096;-70
2021/04/29 06:55:24;;;;;;;4.32;2.60;;;11.90;71.70;;;;;;5029506;28;20040;-69
2021/04/29 06:57:50;;;;;;;4.53;2.50;;;12.10;71.70;;;;;;5030458;28;20033;-70
2021/04/29 07:00:16;;;;;;;3.45;2.35;;;12.20;71.60;;;;;;5032096;28;20060;-70
2021/04/29 07:02:42;;;;;;;2.47;2.28;;;12.40;71.50;;;;;;5034193;28;20022;-71
2021/04/29 07:05:08;;;;;;;3.00;2.63;;;12.50;71.20;;;;;;5028543;28;20075;-68
2021/04/29 07:07:33;;;;;;;4.40;2.50;;;12.60;71.00;;;;;;5029039;28;20029;-70
2021/04/29 07:09:59;;;;;;;2.38;2.15;;;12.60;70.50;;;;;;5031923;28;20045;-71
2021/04/29 07:12:24;;;;;;;4.82;2.70;;;12.70;70.30;;;;;;5027490;28;20040;-69
2021/04/29 07:14:50;;;;;;;2.67;2.08;;;12.80;69.90;;;;;;5029830;28;20025;-69
2021/04/29 07:17:15;;;;;;;5.38;2.20;;;12.90;69.80;;;;;;5030696;28;20037;-69
2021/04/29 07:19:41;;;;;;;2.33;2.13;;;13.00;69.50;;;;;;5037326;28;20025;-68
2021/04/29 07:22:07;;;;;;;3.25;2.00;;;13.30;69.40;;;;;;5031848;28;20347;-68
2021/04/29 07:24:33;;;;;;;5.28;1.98;;;13.60;69.30;;;;;;5027552;28;20112;-69
2021/04/29 07:27:01;;;;;;;4.43;2.25;;;14.00;68.80;;;;;;5023355;28;20109;-69
2021/04/29 07:29:28;;;;;;;4.35;2.58;;;14.30;68.30;;;;;;5029603;28;20029;-69
2021/04/29 07:31:54;;;;;;;3.17;2.10;;;14.50;67.60;;;;;;5026371;28;20557;-68
2021/04/29 07:34:19;;;;;;;4.80;2.40;;;14.40;67.20;;;;;;5019781;28;20113;-70
2021/04/29 07:36:45;;;;;;;3.22;2.50;;;14.30;67.10;;;;;;5034018;28;20056;-69
2021/04/29 07:39:10;;;;;;;4.25;2.40;;;14.70;66.20;;;;;;5041859;28;20403;-69
2021/04/29 07:41:36;;;;;;;4.00;2.30;;;14.90;65.30;;;;;;5046738;28;20045;-69
2021/04/29 07:44:03;;;;;;;8.02;3.05;;;15.40;64.80;;;;;;5023962;28;20104;-70
2021/04/29 07:46:31;;;;;;;4.32;2.72;;;15.00;65.00;;;;;;5029707;28;20033;-68
2021/04/29 07:48:57;;;;;;;4.20;3.00;;;14.70;65.30;;;;;;5029188;28;20026;-69
2021/04/29 07:51:22;;;;;;;3.08;2.55;;;14.60;65.20;;;;;;5029994;28;20030;-69
2021/04/29 07:53:48;;;;;;;3.63;2.88;;;14.40;65.40;;;;;;5025156;28;20029;-69
2021/04/29 07:56:13;;;;;;;4.55;3.10;;;14.30;65.30;;;;;;5031250;28;20156;-70
2021/04/29 07:58:39;;;;;;;3.63;3.15;;;14.70;64.80;;;;;;5029538;28;20616;-70
2021/04/29 08:01:05;;;;;;;6.55;3.92;;;14.90;63.90;;;;;;5014839;28;20112;-70
2021/04/29 08:03:30;;;;;;;5.30;4.03;;;14.80;63.80;;;;;;5023899;28;20695;-70
2021/04/29 08:05:56;;;;;;;5.05;3.15;;;14.70;63.90;;;;;;5018389;28;20030;-73
2021/04/29 08:08:21;;;;;;;4.70;3.25;;;14.60;64.00;;;;;;5027545;28;20377;-69
2021/04/29 08:10:47;;;;;;;5.05;3.30;;;14.50;64.50;;;;;;5011515;28;20492;-69
2021/04/29 08:13:13;;;;;;;3.78;2.80;;;14.30;64.40;;;;;;5018870;28;20033;-70
2021/04/29 08:15:40;;;;;;;3.85;2.70;;;14.20;64.70;;;;;;5024392;28;20040;-70
2021/04/29 08:18:05;;;;;;;11.05;4.10;;;14.00;65.00;;;;;;5028182;28;20108;-69
2021/04/29 08:20:31;;;;;;;5.70;3.45;;;14.00;65.40;;;;;;5038200;28;20469;-69
2021/04/29 08:22:57;;;;;;;5.72;3.88;;;14.00;65.20;;;;;;5042437;28;20566;-69
2021/04/29 08:25:22;;;;;;;6.30;4.00;;;14.10;64.70;;;;;;5060816;22;20095;-90
2021/04/29 08:27:48;;;;;;;7.47;3.80;;;14.50;64.50;;;;;;5047134;28;20523;-90
2021/04/29 08:30:14;;;;;;;6.32;4.25;;;14.50;64.30;;;;;;5071405;28;20014;-90
2021/04/29 08:32:40;;;;;;;5.38;3.85;;;14.40;64.20;;;;;;5072833;28;20036;-91
2021/04/29 08:35:08;;;;;;;8.55;4.43;;;14.50;64.30;;;;;;5060290;28;20056;-89
2021/04/29 08:37:34;;;;;;;4.47;4.05;;;15.00;63.10;;;;;;5034257;28;20442;-90
2021/04/29 08:40:01;;;;;;;6.15;3.80;;;15.00;63.20;;;;;;5037083;28;20059;-90
2021/04/29 08:42:28;;;;;;;6.97;4.40;;;16.50;61.00;;;;;;5038304;28;20401;-91
2021/04/29 08:44:54;;;;;;;8.02;4.00;;;17.80;58.60;;;;;;5035631;28;20021;-90
2021/04/29 08:47:20;;;;;;;6.68;3.60;;;17.60;59.30;;;;;;5040952;28;20036;-91
2021/04/29 08:49:53;;;;;;;6.07;3.47;;;17.30;59.70;;;;;;5039471;28;20258;-91
2021/04/29 08:52:19;;;;;;;5.53;3.80;;;18.60;57.80;;;;;;5038658;28;20032;-92
2021/04/29 08:54:46;;;;;;;4.03;3.13;;;18.40;58.40;;;;;;5056924;28;20025;-91
2021/04/29 08:57:12;;;;;;;6.15;3.60;;;18.20;58.10;;;;;;5030990;28;20043;-90
2021/04/29 08:59:38;;;;;;;6.82;3.60;;;17.70;58.40;;;;;;5037668;28;20096;-91
2021/04/29 09:02:04;;;;;;;5.82;3.30;;;17.30;58.80;;;;;;5031409;28;20102;-89
2021/04/29 09:04:39;;;;;;;4.85;3.88;;;17.30;57.90;;;;;;5035079;28;20061;-90
2021/04/29 09:07:16;;;;;;;6.35;3.80;;;16.90;58.20;;;;;;5030602;28;20029;-90
2021/04/29 09:09:43;;;;;;;7.65;3.40;;;16.40;58.70;;;;;;5033661;28;20041;-91
2021/04/29 09:12:10;;;;;;;5.68;4.00;;;16.20;59.20;;;;;;5033013;28;20045;-88
2021/04/29 09:14:41;;;;;;;4.75;3.72;;;16.00;59.00;;;;;;5031999;28;20029;-88
2021/04/29 09:17:07;;;;;;;11.60;3.93;;;16.40;58.20;;;;;;5037886;28;20037;-88
2021/04/29 09:19:36;;;;;;;9.88;3.90;;;16.30;58.30;;;;;;5037109;28;20021;-90
2021/04/29 09:22:03;;;;;;;6.13;3.80;;;16.10;58.20;;;;;;5031633;28;20447;-89
2021/04/29 09:24:37;;;;;;;7.95;4.03;;;15.90;58.30;;;;;;5038940;28;20075;-89
2021/04/29 09:27:11;;;;;;;8.85;3.88;;;15.70;58.30;;;;;;5038024;28;20080;-89
2021/04/29 09:29:47;;;;;;;6.70;4.18;;;15.50;58.90;;;;;;5047440;28;20086;-89
2021/04/29 09:32:25;;;;;;;5.85;3.70;;;15.40;58.60;;;;;;5036497;28;20523;-89
2021/04/29 09:34:50;;;;;;;6.57;3.85;;;15.20;59.00;;;;;;5031998;28;20044;-90
2021/04/29 09:37:38;;;;;;;5.63;3.88;;;15.20;59.30;;;;;;5035991;28;20416;-89
2021/04/29 09:40:17;;;;;;;4.63;3.72;;;15.00;59.50;;;;;;5030096;28;20022;-89
2021/04/29 09:42:46;;;;;;;3.97;3.42;;;14.90;59.70;;;;;;5033803;28;20539;-89
2021/04/29 09:45:28;;;;;;;6.90;3.85;;;14.80;59.60;;;;;;5049580;28;20115;-89
2021/04/29 09:47:55;;;;;;;;;;;14.70;59.90;;;;;;5068208;28;20057;-89
2021/04/29 09:50:39;;;;;;;5.60;4.15;;;14.60;60.00;;;;;;5051055;28;19936;-89
2021/04/29 09:53:07;;;;;;;5.50;4.43;;;14.60;60.20;;;;;;5048732;28;20021;-90
2021/04/29 09:55:35;;;;;;;7.75;4.75;;;14.50;60.20;;;;;;5044547;28;20495;-89
2021/04/29 09:58:10;;;;;;;9.95;4.93;;;14.40;60.30;;;;;;5046337;28;20485;-89
2021/04/29 10:00:37;;;;;;;8.85;4.43;;;14.40;60.40;;;;;;5038884;28;20063;-88
2021/04/29 10:03:03;;;;;;;7.40;4.70;;;14.20;60.60;;;;;;5036908;28;20096;-89
2021/04/29 10:05:35;;;;;;;6.63;4.72;;;14.20;60.80;;;;;;5036337;28;20044;-89
2021/04/29 10:08:01;;;;;;;9.07;5.10;;;14.10;61.10;;;;;;5053952;28;20016;-89
2021/04/29 10:10:28;;;;;;;7.80;4.85;;;14.10;61.40;;;;;;5057479;28;20044;-88
2021/04/29 10:12:54;;;;;;;10.35;6.60;;;14.00;61.60;;;;;;5041453;28;20108;-89
2021/04/29 10:15:20;;;;;;;9.00;5.80;;;13.90;61.80;;;;;;5041829;28;20098;-89
2021/04/29 10:17:46;;;;;;;9.65;5.90;;;13.80;62.40;;;;;;5043041;28;20060;-89
2021/04/29 10:20:14;;;;;;;8.90;6.47;;;13.70;62.90;;;;;;5038305;28;20021;-89
2021/04/29 10:22:42;;;;;;;12.48;7.40;;;13.60;63.60;;;;;;5038928;28;20025;-89
2021/04/29 10:25:08;;;;;;;7.47;6.43;;;13.50;63.60;;;;;;5041830;28;20153;-89
2021/04/29 10:27:34;;;;;;;13.40;7.10;;;13.40;64.00;;;;;;5045426;28;20429;-88
2021/04/29 10:30:08;;;;;;;9.52;6.82;;;13.30;64.20;;;;;;5037379;28;20053;-88
2021/04/29 10:32:36;;;;;;;15.05;7.88;;;13.10;64.70;;;;;;5034474;28;20032;-88
2021/04/29 10:35:18;;;;;;;11.52;7.50;;;12.90;64.30;;;;;;5040723;28;20485;-87
2021/04/29 10:38:01;;;;;;;9.40;6.82;;;12.70;65.30;;;;;;5037389;28;20033;-88
2021/04/29 10:40:37;;;;;;;10.85;6.90;;;12.60;65.40;;;;;;5052679;28;20033;-87
2021/04/29 10:43:04;;;;;;;9.05;7.05;;;12.60;66.10;;;;;;5031884;28;20025;-87
2021/04/29 10:45:30;;;;;;;8.52;6.95;;;12.70;65.80;;;;;;5035579;28;20381;-88
2021/04/29 10:48:24;;;;;;;10.30;6.50;;;12.70;65.90;;;;;;5020994;28;20072;-89
2021/04/29 10:50:52;;;;;;;8.02;6.00;;;12.70;66.10;;;;;;5051640;28;20036;-88
2021/04/29 10:53:32;;;;;;;8.13;5.45;;;12.70;66.20;;;;;;5036141;28;20032;-87
2021/04/29 10:56:08;;;;;;;7.80;6.13;;;12.60;66.80;;;;;;5034513;28;20399;-88
2021/04/29 10:58:35;;;;;;;8.15;5.68;;;12.60;66.90;;;;;;5038978;28;20024;-89
2021/04/29 11:01:05;;;;;;;7.90;5.95;;;12.70;66.80;;;;;;5036011;28;20025;-88
2021/04/29 11:03:30;;;;;;;10.15;6.28;;;12.80;66.80;;;;;;5034346;28;20021;-89
2021/04/29 11:06:05;;;;;;;9.38;5.72;;;12.90;67.20;;;;;;5034346;28;20025;-87
2021/04/29 11:08:39;;;;;;;7.15;5.32;;;13.10;67.60;;;;;;5051523;28;20021;-88
2021/04/29 11:11:18;;;;;;;7.15;4.63;;;13.30;67.50;;;;;;5037556;28;20029;-88
2021/04/29 11:13:55;;;;;;;6.22;5.07;;;13.50;67.20;;;;;;5053728;28;20057;-90
2021/04/29 11:16:21;;;;;;;6.78;5.15;;;13.70;67.10;;;;;;5049116;23;20042;-68
2021/04/29 11:18:46;;;;;;;7.53;5.35;;;13.90;67.10;;;;;;5010526;28;20038;-68
2021/04/29 11:21:23;;;;;;;9.35;6.10;;;14.10;67.40;;;;;;5010138;28;20097;-67
2021/04/29 11:23:48;;;;;;;7.97;5.07;;;14.30;67.00;;;;;;5004815;28;20062;-68
2021/04/29 11:26:16;;;;;;;9.80;6.53;;;14.40;66.70;;;;;;5009088;28;20524;-67
2021/04/29 11:28:43;;;;;;;9.07;6.30;;;14.50;67.20;;;;;;5007858;28;20124;-68
2021/04/29 11:31:08;;;;;;;6.28;3.78;;;14.40;66.80;;;;;;5019762;28;20025;-68
2021/04/29 11:33:38;;;;;;;4.63;3.80;;;14.30;66.00;;;;;;5010646;28;20048;-68
2021/04/29 11:36:18;;;;;;;5.45;3.55;;;14.00;64.70;;;;;;5009398;28;20042;-68
2021/04/29 11:39:04;;;;;;;7.80;3.78;;;13.70;64.70;;;;;;5009875;28;20053;-68
2021/04/29 11:41:30;;;;;;;5.75;3.78;;;13.30;64.50;;;;;;5013481;28;20022;-68
2021/04/29 11:43:55;;;;;;;6.20;3.72;;;13.00;64.70;;;;;;5011367;28;20030;-68
2021/04/29 11:46:22;;;;;;;8.77;4.28;;;12.80;65.20;;;;;;5010675;28;20075;-68
2021/04/29 11:48:55;;;;;;;3.90;3.55;;;12.60;65.50;;;;;;5012643;28;20037;-68
2021/04/29 11:51:21;;;;;;;5.45;4.13;;;12.40;66.00;;;;;;5011371;28;20030;-68
2021/04/29 11:53:46;;;;;;;5.57;3.72;;;12.40;66.10;;;;;;5009321;28;20034;-68
2021/04/29 11:56:14;;;;;;;9.75;4.25;;;12.60;66.10;;;;;;5009466;28;20080;-68
2021/04/29 11:58:40;;;;;;;4.53;3.65;;;12.70;66.30;;;;;;5009766;28;20521;-68
2021/04/29 12:01:12;;;;;;;6.03;4.28;;;12.90;66.90;;;;;;5011119;28;20030;-68
2021/04/29 12:03:38;;;;;;;;;;;13.00;66.40;;;;;;5002362;28;20212;-68
2021/04/29 12:06:04;;;;;;;5.35;3.67;;;13.20;65.90;;;;;;5009218;28;19915;-68
2021/04/29 12:08:35;;;;;;;11.45;7.20;;;13.30;66.00;;;;;;5009957;28;20022;-68
2021/04/29 12:11:08;;;;;;;6.47;4.28;;;13.50;66.30;;;;;;5010442;28;20112;-68
2021/04/29 12:13:38;;;;;;;4.30;3.15;;;13.80;66.30;;;;;;5011399;28;20036;-68
2021/04/29 12:16:07;;;;;;;6.47;3.92;;;14.00;65.70;;;;;;5012827;28;20494;-68
2021/04/29 12:18:33;;;;;;;3.90;3.20;;;14.30;66.20;;;;;;5022033;28;20057;-68
2021/04/29 12:21:00;;;;;;;4.32;3.10;;;14.70;65.40;;;;;;5021477;28;20409;-68
2021/04/29 12:23:26;;;;;;;4.32;3.17;;;15.00;64.30;;;;;;5010416;28;20513;-69
2021/04/29 12:26:06;;;;;;;4.65;3.20;;;15.20;63.50;;;;;;5005856;28;20156;-69
2021/04/29 12:28:34;;;;;;;5.60;3.40;;;15.50;63.00;;;;;;5013934;28;20102;-68
2021/04/29 12:31:20;;;;;;;6.68;3.47;;;15.60;63.00;;;;;;5014122;28;20056;-66
2021/04/29 12:34:05;;;;;;;4.28;2.70;;;15.80;62.70;;;;;;5012840;28;20022;-69
2021/04/29 12:36:36;;;;;;;8.93;6.82;;;15.80;61.90;;;;;;5013930;28;20750;-68
2021/04/29 12:39:19;;;;;;;8.70;6.95;;;15.90;61.20;;;;;;5013325;28;20026;-68
2021/04/29 12:41:52;;;;;;;5.35;3.75;;;15.70;59.80;;;;;;4993201;28;20041;-68
2021/04/29 12:44:18;;;;;;;3.35;2.75;;;15.60;59.70;;;;;;5009809;28;20074;-69
2021/04/29 12:46:44;;;;;;;5.20;3.10;;;15.60;59.90;;;;;;5012295;28;20061;-69
2021/04/29 12:49:15;;;;;;;3.03;2.60;;;15.60;59.90;;;;;;5012476;28;20037;-66